Airfield :







YOU CAN JOIN US ON...

 
LOGIN :

Register | Disclaimer

   EN    FR    IT 

 









Legend :    VFR   Marginal VFR   IFR   Intensive IFR   Very Intensive IFR
Visi :
Ceiling :
>= 8 km
>= 3000ft
5 to 8 km
1000 to 3000 ft
1500m to 5 km
500 to 1000 ft
800 to 1500m
200 to 500 ft
< 800m
< 200 ft
Symbols :   Thunderstorms  Fog  Heavy snow  Heavy precipitations  Wind > 20 kt






- Airport Elevation : 22 ft
- IATA code : YDP


CYDP - Nain

CURRENT METAR :
  • 242200Z 22005KT 170V260 15SM FEW100 M24/M31 A3023 RMK AC1 SLP240

EXPIRED METARs :
  • 242100Z 27014G33KT 200V300 15SM FEW100 M22/M31 A3020 RMK AC1 TR AC SLP228
  • 242000Z CCA 29025G35KT 15SM FEW100 M22/M30 A3020 RMK AC1 TR AC OCNL DRSN SLP228

TAF AMD TAF CYDP
Valid from the 24 at 22:00 until the 25 at 00:00 UTC


242210Z 2422/2424 22005KT P6SM FEW100
TEMPO 2422/2424 28015G25KT RMK NXT FCST WILL BE ISSUED AT 251045Z



MET'MAP, your aeronautical weather chart ! - Copyright ORBIFLY December 2007 - Disclaimer

ORBIFLY MET'MAP TEAM :

Programming & Development : Alexandra Zaïnal
Concept & original design : Baudouin d'Aumeries
Assistance for programming : Marc-Olivier Méhu
Technical & hardware support : Manuel Goepfert

Contact : metmap@orbifly.com




SOURCES & CREDITS :

   NOAA